Flight Track Log - Related Links

Times and Time Zones

All times are in EDT time to prevent confusion due to time zone crossing. See the N319EE flight status page for this flight to view local times or setup timezone preferences in your user account.

Time Position Orientation Groundspeed Altitude Reporting Facility
EDT Latitude Longitude Course Direction KTS MPH feet Rate Location/Type
Thu 03:04:00 PM 42.2269 -75.9431 306° West 250 288 3,300  Level New York Center
Thu 03:05:00 PM 42.2661 -75.9575 345° North 169 194 5,000 2,000 Climbing New York Center
Thu 03:06:00 PM 42.2969 -76.0131 307° West 157 181 7,300 1,500 Climbing New York Center
Thu 03:07:00 PM 42.3239 -76.0603 308° West 164 189 8,000 600 Climbing New York Center
Thu 03:08:00 PM 42.3603 -76.1306 305° West 201 231 8,500 800 Climbing New York Center
Thu 03:09:00 PM 42.4066 -76.3441 306° West  Level FlightAware Approximate
Thu 03:09:00 PM 42.3906 -76.1975 301° West 214 246 9,600  Level New York Center
Thu 03:10:00 PM 42.4250 -76.2622 306° West 214 246 10,000 200 Climbing New York Center
Thu 03:11:00 PM 42.4592 -76.3353 302° West 219 252 10,000  Level New York Center
Thu 03:12:00 PM 42.4956 -76.4031 306° West 219 252 10,000 -50 Level New York Center
Thu 03:13:00 PM 42.5300 -76.4678 306° West 219 252 9,900 -50 Descending New York Center
Thu 03:14:00 PM 42.5661 -76.5358 306° West 219 252 9,900  Level New York Center
Thu 03:15:00 PM 42.6044 -76.6039 307° West 224 258 9,900 28 Level New York Center
Thu 03:16:00 PM 42.6187 -76.6840 284° West  Level FlightAware Approximate
Thu 03:17:31 PM 42.7042 -76.7847 284° West 228 262 10,000  Level Cleveland Center
Thu 03:18:32 PM 42.7414 -76.8544 306° West 231 266 9,600 -694 Descending Cleveland Center
Thu 03:19:32 PM 42.7842 -76.9283 308° West 253 291 8,600 -992 Descending Cleveland Center
Thu 03:20:33 PM 42.8247 -77.0047 306° West 252 290 7,600 -984 Descending Cleveland Center
Thu 03:21:34 PM 42.8650 -77.0814 306° West 245 282 6,600 -992 Descending Cleveland Center
Thu 03:22:34 PM 42.9058 -77.1550 307° West 245 282 5,600 -893 Descending Cleveland Center
Thu 03:23:35 PM 42.9475 -77.2350 305° West 246 283 4,800 -750 Descending Cleveland Center
Thu 03:24:42 PM 42.9936 -77.3164 308° West 250 288 4,000 -709 Descending Cleveland Center
Thu 03:25:42 PM 43.0336 -77.3933 305° West 248 285 3,300 -645 Descending Cleveland Center
Thu 03:26:43 PM 43.0739 -77.4703 306° West 250 288 2,700 -595 Descending Cleveland Center
Thu 03:27:43 PM 43.1142 -77.5444 307° West 248 285 2,100 -595 Descending Cleveland Center
Thu 03:28:44 PM 43.1400 -77.6033 301° West 128 147 1,500 -689 Descending Cleveland Center
Thu 03:29:45 PM 43.1247 -77.6517 247° West 124 143 700 -787 Descending Cleveland Center
Thu 03:31:00 PM 43.1167 -77.6667 316° Northwest  Level FlightAware Approximate
Thu 03:38:00 PM 43.1191 -77.6719 316° Northwest  Level Estimated

Login

Don't have an account? Register now (free) for customized features, flight alerts, and more!